createdAt,value
2018-11-10T09:22:58.133Z,13.76
2018-11-10T09:25:26.528Z,13.85
2018-11-10T09:27:54.949Z,13.91
2018-11-10T09:30:23.377Z,13.96
2018-11-10T09:32:51.777Z,13.97
2018-11-10T09:35:20.134Z,14.01
2018-11-10T09:37:48.562Z,14.00
2018-11-10T09:40:17.556Z,14.05
2018-11-10T09:42:46.155Z,14.08
2018-11-10T09:45:15.586Z,14.08
2018-11-10T09:47:43.989Z,14.11
2018-11-10T09:50:14.842Z,14.13
2018-11-10T09:52:44.193Z,14.21
2018-11-10T09:55:12.951Z,14.24
2018-11-10T09:57:41.399Z,14.25
2018-11-10T10:00:13.555Z,14.27
2018-11-10T10:02:42.525Z,14.21
2018-11-10T10:05:11.105Z,14.21
2018-11-10T10:07:40.330Z,14.29
2018-11-10T10:10:10.524Z,14.40
2018-11-10T10:12:38.954Z,14.37
2018-11-10T10:15:09.170Z,14.38
2018-11-10T10:17:37.609Z,14.45
2018-11-10T10:20:08.372Z,14.53
2018-11-10T10:22:36.808Z,14.54
2018-11-10T10:25:06.001Z,14.60
2018-11-10T10:27:34.457Z,14.66
2018-11-10T10:30:02.892Z,14.69
2018-11-10T10:32:31.264Z,14.64
2018-11-10T10:35:01.786Z,14.65
2018-11-10T10:37:36.353Z,14.56
2018-11-10T10:40:14.663Z,14.62
2018-11-10T10:43:17.958Z,14.62
2018-11-10T10:45:46.521Z,14.62
2018-11-10T10:48:14.921Z,14.65
2018-11-10T10:50:43.397Z,14.68
2018-11-10T10:53:12.049Z,14.65
2018-11-10T10:55:40.653Z,14.67
2018-11-10T10:58:09.436Z,14.74
2018-11-10T11:00:43.074Z,14.73
2018-11-10T11:03:16.813Z,14.68
2018-11-10T11:05:50.493Z,14.70
2018-11-10T11:08:18.977Z,14.73
2018-11-10T11:10:47.373Z,14.74
2018-11-10T11:13:15.770Z,14.77
2018-11-10T11:15:44.220Z,14.81
2018-11-10T11:18:12.584Z,14.84
2018-11-10T11:20:41.044Z,14.86
2018-11-10T11:23:09.431Z,14.91
2018-11-10T11:25:37.866Z,14.94
2018-11-10T11:28:06.261Z,14.94
2018-11-10T11:30:34.666Z,14.96
2018-11-10T11:33:03.134Z,15.00
2018-11-10T11:35:31.600Z,14.98
2018-11-10T11:37:59.989Z,15.02
2018-11-10T11:40:28.389Z,15.01
2018-11-10T11:42:56.838Z,15.07
2018-11-10T11:45:25.259Z,15.03
2018-11-10T11:47:53.658Z,15.08
2018-11-10T11:50:22.058Z,15.08
2018-11-10T11:52:50.441Z,15.23
2018-11-10T11:55:18.814Z,15.33
2018-11-10T11:57:47.380Z,15.38
2018-11-10T12:00:17.096Z,15.44
2018-11-10T12:02:46.083Z,15.44
2018-11-10T12:05:15.817Z,15.39
2018-11-10T12:07:44.617Z,15.35
2018-11-10T12:10:14.182Z,15.40
2018-11-10T12:12:42.586Z,15.39
2018-11-10T12:15:12.318Z,15.35
2018-11-10T12:17:40.841Z,15.47
2018-11-10T12:20:10.712Z,15.43
2018-11-10T12:22:39.149Z,15.48
2018-11-10T12:25:08.096Z,15.39
2018-11-10T12:27:36.673Z,15.38
2018-11-10T12:30:05.860Z,15.57
2018-11-10T12:32:34.254Z,15.46
2018-11-10T12:35:02.689Z,15.55
2018-11-10T12:37:31.169Z,15.57
2018-11-10T12:39:59.658Z,15.54
2018-11-10T12:42:28.109Z,15.51
2018-11-10T12:44:56.558Z,15.55
2018-11-10T12:47:25.017Z,15.60
2018-11-10T12:49:53.417Z,15.72
2018-11-10T12:52:21.877Z,15.87
2018-11-10T12:54:50.315Z,15.85
2018-11-10T12:57:18.738Z,16.08
2018-11-10T12:59:47.122Z,16.23
2018-11-10T13:02:15.536Z,16.35
2018-11-10T13:04:43.958Z,16.21
2018-11-10T13:07:12.491Z,16.24
2018-11-10T13:09:40.899Z,16.00
2018-11-10T13:12:09.357Z,16.09
2018-11-10T13:14:37.736Z,16.15
2018-11-10T13:17:06.256Z,15.91
2018-11-10T13:19:34.749Z,15.93
2018-11-10T13:22:03.187Z,15.85
2018-11-10T13:24:31.624Z,15.73
2018-11-10T13:27:00.045Z,15.67
2018-11-10T13:29:28.449Z,15.61
2018-11-10T13:31:56.926Z,15.57
2018-11-10T13:34:25.285Z,15.50
2018-11-10T13:36:53.705Z,15.45
2018-11-10T13:39:22.084Z,15.37
2018-11-10T13:41:51.412Z,15.26
2018-11-10T13:44:20.306Z,15.25
2018-11-10T13:46:49.131Z,15.22
2018-11-10T13:49:17.751Z,15.23
2018-11-10T13:51:46.618Z,15.22
2018-11-10T13:54:15.122Z,15.32
2018-11-10T13:56:45.006Z,15.33
2018-11-10T13:59:13.899Z,15.25
2018-11-10T14:01:42.570Z,15.26
2018-11-10T14:04:11.583Z,15.26
2018-11-10T14:06:40.483Z,15.20
2018-11-10T14:09:11.357Z,15.15
2018-11-10T14:11:40.671Z,15.20
2018-11-10T14:32:10.275Z,15.01
2018-11-10T14:34:39.844Z,14.95
2018-11-10T14:37:08.677Z,14.95
2018-11-10T14:39:37.596Z,15.11
2018-11-10T14:42:06.635Z,15.05
2018-11-10T14:44:35.399Z,15.06
2018-11-10T14:47:04.356Z,15.16
2018-11-10T14:49:32.823Z,15.06
2018-11-10T14:52:01.238Z,15.13
2018-11-10T14:54:29.693Z,15.08
2018-11-10T14:56:58.152Z,15.04
2018-11-10T14:59:26.529Z,15.05
2018-11-10T15:01:54.993Z,15.02
2018-11-10T15:04:23.411Z,15.03
2018-11-10T15:06:51.841Z,15.05
2018-11-10T15:09:21.143Z,15.04
2018-11-10T15:11:50.111Z,15.04
2018-11-10T15:14:18.445Z,15.07
2018-11-10T15:16:47.558Z,14.96
2018-11-10T15:19:16.170Z,14.99
2018-11-10T15:21:44.917Z,14.97
2018-11-10T15:24:13.610Z,14.98
2018-11-10T15:26:42.402Z,14.83
2018-11-10T15:29:11.086Z,14.89
2018-11-10T15:31:39.858Z,14.79
2018-11-10T15:34:08.546Z,14.70
2018-11-10T15:36:37.254Z,14.76
2018-11-10T15:39:07.655Z,14.68
2018-11-10T15:41:36.302Z,14.69
2018-11-10T15:44:04.709Z,14.58
2018-11-10T15:46:34.285Z,14.60
2018-11-10T15:49:03.020Z,14.41
2018-11-10T15:51:31.763Z,14.37
2018-11-10T15:54:00.346Z,14.38
2018-11-10T15:56:28.990Z,14.38
2018-11-10T15:58:57.670Z,14.41
2018-11-10T16:01:26.798Z,14.43
2018-11-10T16:03:55.455Z,14.32
2018-11-10T16:06:23.893Z,14.44
2018-11-10T16:08:53.638Z,14.33
2018-11-10T16:11:22.437Z,14.41
2018-11-10T16:13:51.246Z,14.46
2018-11-10T16:16:19.703Z,14.42
2018-11-10T16:18:48.577Z,14.41
2018-11-10T16:21:17.122Z,14.32
2018-11-10T16:23:45.525Z,14.32
2018-11-10T16:26:13.897Z,14.29
2018-11-10T16:28:42.363Z,14.43
2018-11-10T16:31:11.031Z,14.41
2018-11-10T16:33:39.463Z,14.30
2018-11-10T16:36:07.854Z,14.29
2018-11-10T16:38:36.361Z,14.50
2018-11-10T16:41:05.130Z,14.30
2018-11-10T16:43:33.565Z,14.17
2018-11-10T16:46:01.980Z,14.30
2018-11-10T16:48:30.399Z,14.24
2018-11-10T16:50:58.905Z,14.26
2018-11-10T16:53:27.746Z,14.21
2018-11-10T16:55:56.116Z,14.47
2018-11-10T16:58:24.534Z,14.44
2018-11-10T17:00:52.898Z,14.33
2018-11-10T17:03:21.346Z,14.27
2018-11-10T17:05:49.741Z,14.22
2018-11-10T17:08:18.208Z,14.29
2018-11-10T17:10:46.649Z,14.34
2018-11-10T17:13:15.086Z,14.44
2018-11-10T17:15:43.569Z,14.46
2018-11-10T17:18:12.080Z,14.51
2018-11-10T17:20:40.463Z,14.62
2018-11-10T17:23:08.885Z,14.57
2018-11-10T17:25:37.382Z,14.43
2018-11-10T17:28:06.082Z,14.52
2018-11-10T17:30:34.491Z,14.52
2018-11-10T17:33:04.044Z,14.57
2018-11-10T17:35:32.647Z,14.64
2018-11-10T17:38:01.464Z,14.59
2018-11-10T17:40:29.838Z,14.55
2018-11-10T17:42:58.259Z,14.45
2018-11-10T17:45:26.653Z,14.32
2018-11-10T17:47:55.062Z,14.25
2018-11-10T17:50:23.482Z,14.21
2018-11-10T17:52:52.034Z,14.29
2018-11-10T17:55:23.599Z,14.22
2018-11-10T17:57:52.239Z,14.24
2018-11-10T18:00:20.858Z,14.30
2018-11-10T18:02:49.617Z,14.21
2018-11-10T18:05:18.349Z,14.21
2018-11-10T18:07:47.121Z,14.19
2018-11-10T18:10:17.065Z,14.17
2018-11-10T18:12:46.208Z,14.15
2018-11-10T18:15:16.328Z,14.19
2018-11-10T18:17:45.024Z,14.25
2018-11-10T18:20:14.692Z,14.29
2018-11-10T18:22:43.505Z,14.26
2018-11-10T18:25:13.056Z,14.25
2018-11-10T18:27:41.710Z,14.37
2018-11-10T18:30:12.218Z,14.18
2018-11-10T18:32:43.714Z,14.16
2018-11-10T18:35:12.761Z,14.17
2018-11-10T18:37:42.261Z,14.12
2018-11-10T18:40:12.058Z,14.09
2018-11-10T18:42:40.621Z,13.96
2018-11-10T18:45:10.434Z,13.99
2018-11-10T18:47:40.517Z,13.97
2018-11-10T18:50:12.120Z,13.91
2018-11-10T18:52:40.617Z,13.76
2018-11-10T18:55:09.610Z,13.54
2018-11-10T18:57:46.271Z,13.57
2018-11-10T19:00:16.091Z,13.47
2018-11-10T19:02:44.538Z,13.47
2018-11-10T19:05:14.377Z,13.40
2018-11-10T19:07:42.793Z,13.33
2018-11-10T19:10:13.744Z,13.33
2018-11-10T19:12:42.702Z,13.25
2018-11-10T19:15:13.618Z,13.15
2018-11-10T19:17:42.053Z,13.05
2018-11-10T19:20:11.193Z,13.01
2018-11-10T19:22:39.886Z,12.93
2018-11-10T19:25:09.865Z,12.94
2018-11-10T19:27:38.821Z,12.83
2018-11-10T19:30:11.417Z,12.78
2018-11-10T19:32:39.854Z,12.77
2018-11-10T19:35:09.247Z,12.75
2018-11-10T19:37:38.699Z,12.74
2018-11-10T19:40:07.926Z,12.75
2018-11-10T19:42:36.327Z,12.72
2018-11-10T19:45:05.719Z,12.74
2018-11-10T19:47:34.131Z,12.77
2018-11-10T19:50:02.608Z,12.74
2018-11-10T19:52:30.998Z,12.72
2018-11-10T19:54:59.405Z,12.70
2018-11-10T19:57:27.849Z,12.69
2018-11-10T19:59:56.274Z,12.67
2018-11-10T20:02:24.745Z,12.68
2018-11-10T20:04:53.239Z,12.71
2018-11-10T20:07:21.679Z,12.69
2018-11-10T20:09:50.109Z,12.66
2018-11-10T20:12:18.529Z,12.62
2018-11-10T20:14:46.992Z,12.59
2018-11-10T20:17:15.414Z,12.54
2018-11-10T20:19:43.965Z,12.55
2018-11-10T20:22:12.280Z,12.56
2018-11-10T20:24:40.721Z,12.65
2018-11-10T20:27:09.158Z,12.62
2018-11-10T20:29:37.581Z,12.66
2018-11-10T20:32:06.024Z,12.59
2018-11-10T20:34:34.456Z,12.62
2018-11-10T20:37:02.882Z,12.64
2018-11-10T20:39:31.293Z,12.63
2018-11-10T20:41:59.754Z,12.67
2018-11-10T20:44:28.398Z,12.68
2018-11-10T20:46:56.937Z,12.72
2018-11-10T20:49:25.389Z,12.73
2018-11-10T20:51:53.806Z,12.75
2018-11-10T20:54:22.281Z,12.73
2018-11-10T20:56:51.004Z,12.54
2018-11-10T20:59:19.717Z,12.48
2018-11-10T21:01:48.373Z,12.45
2018-11-10T21:04:17.021Z,12.66
2018-11-10T21:06:45.576Z,12.72
2018-11-10T21:09:13.990Z,12.50
2018-11-10T21:11:42.381Z,12.40
2018-11-10T21:14:11.358Z,12.31
2018-11-10T21:16:39.747Z,12.28
2018-11-10T21:19:08.432Z,12.22
2018-11-10T21:21:36.842Z,12.13
2018-11-10T21:24:05.495Z,12.08
2018-11-10T21:26:33.939Z,12.12
2018-11-10T21:29:02.406Z,12.10
2018-11-10T21:31:31.157Z,12.13
2018-11-10T21:33:59.846Z,12.10
2018-11-10T21:36:28.486Z,12.12
2018-11-10T21:38:56.959Z,12.17
2018-11-10T21:41:30.886Z,12.21
2018-11-10T21:43:59.471Z,12.22
2018-11-10T21:46:27.970Z,12.20
2018-11-10T21:48:56.677Z,12.16
2018-11-10T21:51:25.599Z,12.15
2018-11-10T21:53:54.037Z,12.11
2018-11-10T21:56:22.582Z,12.19
2018-11-10T21:58:51.221Z,12.12
2018-11-10T22:01:19.821Z,12.16
2018-11-10T22:03:48.462Z,12.25
2018-11-10T22:06:17.133Z,12.32
2018-11-10T22:08:46.339Z,12.31
2018-11-10T22:11:14.908Z,12.37
2018-11-10T22:13:47.075Z,12.34
2018-11-10T22:16:16.090Z,12.32
2018-11-10T22:18:44.885Z,12.33
2018-11-10T22:21:13.618Z,12.34
2018-11-10T22:23:42.200Z,12.32
2018-11-10T22:26:10.816Z,12.34
2018-11-10T22:28:39.317Z,12.34
2018-11-10T22:31:07.816Z,12.40
2018-11-10T22:33:36.246Z,12.51
2018-11-10T22:36:04.677Z,12.42
2018-11-10T22:38:33.068Z,12.61
2018-11-10T22:41:01.504Z,12.56
2018-11-10T22:43:30.114Z,12.47
2018-11-10T22:45:58.802Z,12.44
2018-11-10T22:48:27.394Z,12.44
2018-11-10T22:50:56.019Z,12.32
2018-11-10T22:53:24.493Z,12.27
2018-11-10T23:02:51.737Z,12.30
2018-11-10T23:05:21.375Z,12.35
2018-11-10T23:07:49.833Z,12.36
2018-11-10T23:10:18.603Z,12.37
2018-11-10T23:12:47.902Z,12.39
2018-11-10T23:15:16.321Z,12.40
2018-11-10T23:17:45.210Z,12.38
2018-11-10T23:20:15.273Z,12.30
2018-11-10T23:22:43.889Z,12.22
2018-11-10T23:25:13.653Z,12.10
2018-11-10T23:27:42.070Z,12.07
2018-11-10T23:30:13.041Z,12.08
2018-11-10T23:32:41.805Z,12.11
2018-11-10T23:35:11.022Z,12.17
2018-11-10T23:37:39.833Z,12.25
2018-11-10T23:40:10.023Z,12.22
2018-11-10T23:42:38.527Z,12.17
2018-11-10T23:45:07.731Z,12.17
2018-11-10T23:47:36.496Z,12.13
2018-11-10T23:50:05.144Z,12.05
2018-11-10T23:52:33.569Z,11.98
2018-11-10T23:55:01.951Z,11.87
2018-11-10T23:57:30.365Z,11.79
2018-11-10T23:59:58.722Z,11.72
